sensor_id;sensor_type;location;lat;lon;timestamp;P1;durP1;ratioP1;P2;durP2;ratioP2
60292;SDS011;52402;52.670;6.750;2023-04-03T00:02:20;4.55;;;2.10;;
60292;SDS011;52402;52.670;6.750;2023-04-03T00:04:50;5.82;;;2.08;;
60292;SDS011;52402;52.670;6.750;2023-04-03T00:09:46;5.75;;;2.40;;
60292;SDS011;52402;52.670;6.750;2023-04-03T00:12:14;6.40;;;2.20;;
60292;SDS011;52402;52.670;6.750;2023-04-03T00:14:42;6.43;;;2.88;;
60292;SDS011;52402;52.670;6.750;2023-04-03T00:17:10;7.28;;;2.33;;
60292;SDS011;52402;52.670;6.750;2023-04-03T00:19:36;6.47;;;2.55;;
60292;SDS011;52402;52.670;6.750;2023-04-03T00:22:06;5.65;;;2.40;;
60292;SDS011;52402;52.670;6.750;2023-04-03T00:24:39;4.72;;;2.10;;
60292;SDS011;52402;52.670;6.750;2023-04-03T00:27:12;6.68;;;2.45;;
60292;SDS011;52402;52.670;6.750;2023-04-03T00:29:42;6.95;;;2.42;;
60292;SDS011;52402;52.670;6.750;2023-04-03T00:32:12;5.68;;;2.40;;
60292;SDS011;52402;52.670;6.750;2023-04-03T00:34:43;5.40;;;2.15;;
60292;SDS011;52402;52.670;6.750;2023-04-03T00:37:13;7.38;;;2.47;;
60292;SDS011;52402;52.670;6.750;2023-04-03T00:39:46;4.68;;;2.10;;
60292;SDS011;52402;52.670;6.750;2023-04-03T00:42:16;5.72;;;2.45;;
60292;SDS011;52402;52.670;6.750;2023-04-03T00:47:37;6.75;;;2.70;;
60292;SDS011;52402;52.670;6.750;2023-04-03T00:50:10;7.07;;;2.72;;
60292;SDS011;52402;52.670;6.750;2023-04-03T00:52:40;5.18;;;2.40;;
60292;SDS011;52402;52.670;6.750;2023-04-03T00:55:13;8.32;;;2.83;;
60292;SDS011;52402;52.670;6.750;2023-04-03T00:57:46;5.90;;;2.40;;
60292;SDS011;52402;52.670;6.750;2023-04-03T01:00:17;6.05;;;2.50;;
60292;SDS011;52402;52.670;6.750;2023-04-03T01:02:51;6.88;;;2.42;;
60292;SDS011;52402;52.670;6.750;2023-04-03T01:05:21;4.97;;;2.50;;
60292;SDS011;52402;52.670;6.750;2023-04-03T01:07:52;8.02;;;2.97;;
60292;SDS011;52402;52.670;6.750;2023-04-03T01:10:26;9.15;;;2.67;;
60292;SDS011;52402;52.670;6.750;2023-04-03T01:12:54;7.78;;;2.80;;
60292;SDS011;52402;52.670;6.750;2023-04-03T01:15:29;6.63;;;2.60;;
60292;SDS011;52402;52.670;6.750;2023-04-03T01:18:02;7.40;;;2.90;;
60292;SDS011;52402;52.670;6.750;2023-04-03T01:20:40;5.65;;;2.70;;
60292;SDS011;52402;52.670;6.750;2023-04-03T01:23:53;7.05;;;2.80;;
60292;SDS011;52402;52.670;6.750;2023-04-03T01:26:47;8.13;;;2.70;;
60292;SDS011;52402;52.670;6.750;2023-04-03T01:29:23;8.88;;;2.88;;
60292;SDS011;52402;52.670;6.750;2023-04-03T01:32:00;7.35;;;2.72;;
60292;SDS011;52402;52.670;6.750;2023-04-03T01:34:39;8.05;;;2.60;;
60292;SDS011;52402;52.670;6.750;2023-04-03T01:37:09;7.07;;;2.75;;
60292;SDS011;52402;52.670;6.750;2023-04-03T01:42:05;6.93;;;3.00;;
60292;SDS011;52402;52.670;6.750;2023-04-03T01:44:35;6.72;;;2.88;;
60292;SDS011;52402;52.670;6.750;2023-04-03T01:47:01;8.70;;;3.10;;
60292;SDS011;52402;52.670;6.750;2023-04-03T01:49:32;6.85;;;3.10;;
60292;SDS011;52402;52.670;6.750;2023-04-03T01:52:05;7.07;;;2.90;;
60292;SDS011;52402;52.670;6.750;2023-04-03T01:54:31;6.32;;;2.65;;
60292;SDS011;52402;52.670;6.750;2023-04-03T01:56:59;5.97;;;2.95;;
60292;SDS011;52402;52.670;6.750;2023-04-03T01:59:29;6.78;;;2.80;;
60292;SDS011;52402;52.670;6.750;2023-04-03T02:01:59;7.65;;;3.20;;
60292;SDS011;52402;52.670;6.750;2023-04-03T02:04:27;6.05;;;2.65;;
60292;SDS011;52402;52.670;6.750;2023-04-03T02:06:57;6.43;;;2.85;;
60292;SDS011;52402;52.670;6.750;2023-04-03T02:09:30;7.30;;;3.25;;
60292;SDS011;52402;52.670;6.750;2023-04-03T02:12:03;6.57;;;3.70;;
60292;SDS011;52402;52.670;6.750;2023-04-03T02:14:33;6.80;;;3.03;;
60292;SDS011;52402;52.670;6.750;2023-04-03T02:17:03;6.57;;;3.03;;
60292;SDS011;52402;52.670;6.750;2023-04-03T02:19:36;6.45;;;3.10;;
60292;SDS011;52402;52.670;6.750;2023-04-03T02:22:07;7.32;;;3.25;;
60292;SDS011;52402;52.670;6.750;2023-04-03T02:24:42;7.07;;;3.20;;
60292;SDS011;52402;52.670;6.750;2023-04-03T02:27:12;6.32;;;3.20;;
60292;SDS011;52402;52.670;6.750;2023-04-03T02:29:43;7.10;;;3.10;;
60292;SDS011;52402;52.670;6.750;2023-04-03T02:32:13;7.38;;;3.15;;
60292;SDS011;52402;52.670;6.750;2023-04-03T02:34:43;7.13;;;3.42;;
60292;SDS011;52402;52.670;6.750;2023-04-03T02:37:16;7.95;;;3.75;;
60292;SDS011;52402;52.670;6.750;2023-04-03T02:39:46;7.68;;;3.50;;
60292;SDS011;52402;52.670;6.750;2023-04-03T02:42:12;6.25;;;2.92;;
60292;SDS011;52402;52.670;6.750;2023-04-03T02:44:45;6.45;;;3.05;;
60292;SDS011;52402;52.670;6.750;2023-04-03T02:47:15;7.10;;;3.28;;
60292;SDS011;52402;52.670;6.750;2023-04-03T02:49:46;8.20;;;3.00;;
60292;SDS011;52402;52.670;6.750;2023-04-03T02:54:47;7.80;;;3.10;;
60292;SDS011;52402;52.670;6.750;2023-04-03T02:57:15;7.80;;;3.45;;
60292;SDS011;52402;52.670;6.750;2023-04-03T02:59:50;8.43;;;3.78;;
60292;SDS011;52402;52.670;6.750;2023-04-03T03:02:23;7.22;;;3.60;;
60292;SDS011;52402;52.670;6.750;2023-04-03T03:04:51;6.25;;;3.35;;
60292;SDS011;52402;52.670;6.750;2023-04-03T03:12:20;9.02;;;3.65;;
60292;SDS011;52402;52.670;6.750;2023-04-03T03:17:18;5.43;;;2.38;;
60292;SDS011;52402;52.670;6.750;2023-04-03T03:19:48;6.75;;;3.40;;
60292;SDS011;52402;52.670;6.750;2023-04-03T03:22:20;7.38;;;3.60;;
60292;SDS011;52402;52.670;6.750;2023-04-03T03:24:50;6.00;;;3.22;;
60292;SDS011;52402;52.670;6.750;2023-04-03T03:27:21;7.28;;;3.38;;
60292;SDS011;52402;52.670;6.750;2023-04-03T03:29:53;7.47;;;3.80;;
60292;SDS011;52402;52.670;6.750;2023-04-03T03:32:21;8.90;;;4.00;;
60292;SDS011;52402;52.670;6.750;2023-04-03T03:34:49;7.57;;;3.50;;
60292;SDS011;52402;52.670;6.750;2023-04-03T03:39:47;7.60;;;3.90;;
60292;SDS011;52402;52.670;6.750;2023-04-03T03:44:50;7.18;;;3.65;;
60292;SDS011;52402;52.670;6.750;2023-04-03T03:47:21;7.07;;;3.85;;
60292;SDS011;52402;52.670;6.750;2023-04-03T03:49:54;8.00;;;4.38;;
60292;SDS011;52402;52.670;6.750;2023-04-03T03:52:24;9.18;;;3.95;;
60292;SDS011;52402;52.670;6.750;2023-04-03T03:57:24;7.22;;;3.47;;
60292;SDS011;52402;52.670;6.750;2023-04-03T03:59:56;7.80;;;4.50;;
60292;SDS011;52402;52.670;6.750;2023-04-03T04:02:24;7.65;;;3.65;;
60292;SDS011;52402;52.670;6.750;2023-04-03T04:04:52;7.28;;;3.90;;
60292;SDS011;52402;52.670;6.750;2023-04-03T04:07:27;7.43;;;3.20;;
60292;SDS011;52402;52.670;6.750;2023-04-03T04:10:01;8.05;;;4.25;;
60292;SDS011;52402;52.670;6.750;2023-04-03T04:12:29;8.43;;;4.80;;
60292;SDS011;52402;52.670;6.750;2023-04-03T04:15:00;7.40;;;3.97;;
60292;SDS011;52402;52.670;6.750;2023-04-03T04:17:28;11.20;;;4.93;;
60292;SDS011;52402;52.670;6.750;2023-04-03T04:19:57;6.50;;;2.78;;
60292;SDS011;52402;52.670;6.750;2023-04-03T04:22:30;8.18;;;4.30;;
60292;SDS011;52402;52.670;6.750;2023-04-03T04:25:00;10.52;;;5.35;;
60292;SDS011;52402;52.670;6.750;2023-04-03T04:27:28;8.02;;;3.17;;
60292;SDS011;52402;52.670;6.750;2023-04-03T04:30:00;9.18;;;4.75;;
60292;SDS011;52402;52.670;6.750;2023-04-03T04:32:33;8.57;;;4.40;;
60292;SDS011;52402;52.670;6.750;2023-04-03T04:35:06;5.72;;;2.72;;
60292;SDS011;52402;52.670;6.750;2023-04-03T04:37:41;10.85;;;5.10;;
60292;SDS011;52402;52.670;6.750;2023-04-03T04:40:10;6.28;;;3.03;;
60292;SDS011;52402;52.670;6.750;2023-04-03T04:42:44;8.68;;;5.00;;
60292;SDS011;52402;52.670;6.750;2023-04-03T04:47:47;6.65;;;2.97;;
60292;SDS011;52402;52.670;6.750;2023-04-03T04:50:17;11.77;;;5.38;;
60292;SDS011;52402;52.670;6.750;2023-04-03T04:52:49;8.38;;;4.07;;
60292;SDS011;52402;52.670;6.750;2023-04-03T04:55:20;10.10;;;4.93;;
60292;SDS011;52402;52.670;6.750;2023-04-03T04:57:59;10.45;;;5.57;;
60292;SDS011;52402;52.670;6.750;2023-04-03T05:00:29;10.02;;;5.32;;
60292;SDS011;52402;52.670;6.750;2023-04-03T05:03:04;8.02;;;4.70;;
60292;SDS011;52402;52.670;6.750;2023-04-03T05:05:35;12.88;;;5.55;;
60292;SDS011;52402;52.670;6.750;2023-04-03T05:08:03;9.27;;;5.25;;
60292;SDS011;52402;52.670;6.750;2023-04-03T05:10:34;9.77;;;3.65;;
60292;SDS011;52402;52.670;6.750;2023-04-03T05:13:02;7.50;;;4.60;;
60292;SDS011;52402;52.670;6.750;2023-04-03T05:15:34;10.70;;;4.60;;
60292;SDS011;52402;52.670;6.750;2023-04-03T05:18:05;9.40;;;5.07;;
60292;SDS011;52402;52.670;6.750;2023-04-03T05:20:38;9.52;;;4.40;;
60292;SDS011;52402;52.670;6.750;2023-04-03T05:23:09;12.15;;;4.70;;
60292;SDS011;52402;52.670;6.750;2023-04-03T05:25:43;7.38;;;3.60;;
60292;SDS011;52402;52.670;6.750;2023-04-03T05:30:44;10.57;;;5.50;;
60292;SDS011;52402;52.670;6.750;2023-04-03T05:33:24;10.95;;;5.55;;
60292;SDS011;52402;52.670;6.750;2023-04-03T05:35:55;7.95;;;4.53;;
60292;SDS011;52402;52.670;6.750;2023-04-03T05:38:23;9.15;;;4.95;;
60292;SDS011;52402;52.670;6.750;2023-04-03T05:40:53;10.23;;;4.60;;
60292;SDS011;52402;52.670;6.750;2023-04-03T05:45:56;8.27;;;3.90;;
60292;SDS011;52402;52.670;6.750;2023-04-03T05:48:29;7.47;;;3.65;;
60292;SDS011;52402;52.670;6.750;2023-04-03T05:50:57;9.27;;;4.30;;
60292;SDS011;52402;52.670;6.750;2023-04-03T05:53:28;8.30;;;3.67;;
60292;SDS011;52402;52.670;6.750;2023-04-03T05:55:58;8.80;;;3.78;;
60292;SDS011;52402;52.670;6.750;2023-04-03T05:58:34;7.00;;;3.17;;
60292;SDS011;52402;52.670;6.750;2023-04-03T06:01:04;8.73;;;4.65;;
60292;SDS011;52402;52.670;6.750;2023-04-03T06:03:35;8.57;;;4.45;;
60292;SDS011;52402;52.670;6.750;2023-04-03T06:06:07;8.48;;;4.50;;
60292;SDS011;52402;52.670;6.750;2023-04-03T06:08:39;9.73;;;4.28;;
60292;SDS011;52402;52.670;6.750;2023-04-03T06:11:10;6.60;;;3.00;;
60292;SDS011;52402;52.670;6.750;2023-04-03T06:13:35;10.27;;;4.40;;
60292;SDS011;52402;52.670;6.750;2023-04-03T06:16:06;4.45;;;2.30;;
60292;SDS011;52402;52.670;6.750;2023-04-03T06:18:36;9.07;;;2.92;;
60292;SDS011;52402;52.670;6.750;2023-04-03T06:21:09;10.05;;;4.30;;
60292;SDS011;52402;52.670;6.750;2023-04-03T06:23:39;10.00;;;4.68;;
60292;SDS011;52402;52.670;6.750;2023-04-03T06:26:10;8.25;;;4.20;;
60292;SDS011;52402;52.670;6.750;2023-04-03T06:28:37;6.95;;;3.00;;
60292;SDS011;52402;52.670;6.750;2023-04-03T06:31:08;7.65;;;3.35;;
60292;SDS011;52402;52.670;6.750;2023-04-03T06:33:38;9.15;;;3.90;;
60292;SDS011;52402;52.670;6.750;2023-04-03T06:36:10;6.65;;;2.97;;
60292;SDS011;52402;52.670;6.750;2023-04-03T06:38:41;8.93;;;3.97;;
60292;SDS011;52402;52.670;6.750;2023-04-03T06:41:12;10.77;;;4.35;;
60292;SDS011;52402;52.670;6.750;2023-04-03T06:43:43;12.07;;;4.30;;
60292;SDS011;52402;52.670;6.750;2023-04-03T06:46:14;9.98;;;4.20;;
60292;SDS011;52402;52.670;6.750;2023-04-03T06:48:49;7.78;;;3.45;;
60292;SDS011;52402;52.670;6.750;2023-04-03T06:51:23;10.25;;;3.97;;
60292;SDS011;52402;52.670;6.750;2023-04-03T06:53:54;6.80;;;2.90;;
60292;SDS011;52402;52.670;6.750;2023-04-03T06:56:31;5.53;;;2.28;;
60292;SDS011;52402;52.670;6.750;2023-04-03T06:58:59;9.80;;;3.60;;
60292;SDS011;52402;52.670;6.750;2023-04-03T07:01:30;10.25;;;4.00;;
60292;SDS011;52402;52.670;6.750;2023-04-03T07:03:56;9.00;;;3.95;;
60292;SDS011;52402;52.670;6.750;2023-04-03T07:06:28;6.60;;;2.50;;
60292;SDS011;52402;52.670;6.750;2023-04-03T07:08:58;11.18;;;3.65;;
60292;SDS011;52402;52.670;6.750;2023-04-03T07:11:31;11.68;;;3.65;;
60292;SDS011;52402;52.670;6.750;2023-04-03T07:14:04;10.52;;;3.65;;
60292;SDS011;52402;52.670;6.750;2023-04-03T07:16:31;8.65;;;3.33;;
60292;SDS011;52402;52.670;6.750;2023-04-03T07:19:03;8.30;;;2.90;;
60292;SDS011;52402;52.670;6.750;2023-04-03T07:21:35;8.77;;;2.97;;
60292;SDS011;52402;52.670;6.750;2023-04-03T07:24:09;5.78;;;2.22;;
60292;SDS011;52402;52.670;6.750;2023-04-03T07:26:42;9.60;;;3.47;;
60292;SDS011;52402;52.670;6.750;2023-04-03T07:29:10;10.82;;;3.40;;
60292;SDS011;52402;52.670;6.750;2023-04-03T07:31:40;6.30;;;2.80;;
60292;SDS011;52402;52.670;6.750;2023-04-03T07:34:10;8.27;;;2.90;;
60292;SDS011;52402;52.670;6.750;2023-04-03T07:36:40;9.02;;;2.90;;
60292;SDS011;52402;52.670;6.750;2023-04-03T07:39:12;10.30;;;2.92;;
60292;SDS011;52402;52.670;6.750;2023-04-03T07:41:39;6.40;;;2.35;;
60292;SDS011;52402;52.670;6.750;2023-04-03T07:46:36;8.10;;;3.00;;
60292;SDS011;52402;52.670;6.750;2023-04-03T07:49:06;7.70;;;2.30;;
60292;SDS011;52402;52.670;6.750;2023-04-03T07:54:07;8.10;;;2.50;;
60292;SDS011;52402;52.670;6.750;2023-04-03T07:59:05;5.80;;;2.50;;
60292;SDS011;52402;52.670;6.750;2023-04-03T08:01:35;6.38;;;2.40;;
60292;SDS011;52402;52.670;6.750;2023-04-03T08:04:07;7.25;;;2.60;;
60292;SDS011;52402;52.670;6.750;2023-04-03T08:06:38;7.22;;;2.35;;
60292;SDS011;52402;52.670;6.750;2023-04-03T08:09:06;6.13;;;2.28;;
60292;SDS011;52402;52.670;6.750;2023-04-03T08:11:38;5.95;;;2.00;;
60292;SDS011;52402;52.670;6.750;2023-04-03T08:14:08;6.47;;;2.88;;
60292;SDS011;52402;52.670;6.750;2023-04-03T08:16:41;6.85;;;2.60;;
60292;SDS011;52402;52.670;6.750;2023-04-03T08:19:15;6.28;;;2.10;;
60292;SDS011;52402;52.670;6.750;2023-04-03T08:21:44;7.00;;;2.10;;
60292;SDS011;52402;52.670;6.750;2023-04-03T08:24:14;5.78;;;2.47;;
60292;SDS011;52402;52.670;6.750;2023-04-03T08:26:46;5.63;;;1.92;;
60292;SDS011;52402;52.670;6.750;2023-04-03T08:29:16;5.15;;;2.10;;
60292;SDS011;52402;52.670;6.750;2023-04-03T08:31:49;6.25;;;1.85;;
60292;SDS011;52402;52.670;6.750;2023-04-03T08:34:20;6.65;;;2.13;;
60292;SDS011;52402;52.670;6.750;2023-04-03T08:36:50;5.63;;;2.20;;
60292;SDS011;52402;52.670;6.750;2023-04-03T08:41:47;5.28;;;1.85;;
60292;SDS011;52402;52.670;6.750;2023-04-03T08:50:21;6.05;;;2.10;;
60292;SDS011;52402;52.670;6.750;2023-04-03T08:52:56;5.78;;;1.88;;
60292;SDS011;52402;52.670;6.750;2023-04-03T08:55:25;5.45;;;1.73;;
60292;SDS011;52402;52.670;6.750;2023-04-03T08:58:21;5.03;;;1.90;;
60292;SDS011;52402;52.670;6.750;2023-04-03T09:00:52;5.97;;;1.80;;
60292;SDS011;52402;52.670;6.750;2023-04-03T09:03:29;5.70;;;1.63;;
60292;SDS011;52402;52.670;6.750;2023-04-03T09:06:06;5.82;;;1.50;;
60292;SDS011;52402;52.670;6.750;2023-04-03T09:09:00;4.22;;;1.52;;
60292;SDS011;52402;52.670;6.750;2023-04-03T09:15:01;4.07;;;1.73;;
60292;SDS011;52402;52.670;6.750;2023-04-03T09:17:53;4.72;;;1.60;;
60292;SDS011;52402;52.670;6.750;2023-04-03T09:23:52;4.43;;;1.52;;
60292;SDS011;52402;52.670;6.750;2023-04-03T09:26:28;4.63;;;1.75;;
60292;SDS011;52402;52.670;6.750;2023-04-03T09:29:01;5.95;;;1.70;;
60292;SDS011;52402;52.670;6.750;2023-04-03T09:31:42;5.18;;;1.80;;
60292;SDS011;52402;52.670;6.750;2023-04-03T09:37:08;4.25;;;1.50;;
60292;SDS011;52402;52.670;6.750;2023-04-03T09:39:51;4.60;;;1.50;;
60292;SDS011;52402;52.670;6.750;2023-04-03T09:42:28;5.53;;;1.40;;
60292;SDS011;52402;52.670;6.750;2023-04-03T09:45:02;3.67;;;1.40;;
60292;SDS011;52402;52.670;6.750;2023-04-03T09:47:36;4.88;;;1.42;;
60292;SDS011;52402;52.670;6.750;2023-04-03T09:52:44;3.60;;;1.42;;
60292;SDS011;52402;52.670;6.750;2023-04-03T09:55:22;4.07;;;1.52;;
60292;SDS011;52402;52.670;6.750;2023-04-03T09:57:59;5.65;;;1.95;;
60292;SDS011;52402;52.670;6.750;2023-04-03T10:00:53;4.18;;;1.52;;
60292;SDS011;52402;52.670;6.750;2023-04-03T10:03:24;4.80;;;1.50;;
60292;SDS011;52402;52.670;6.750;2023-04-03T10:05:56;5.18;;;1.40;;
60292;SDS011;52402;52.670;6.750;2023-04-03T10:08:31;4.18;;;1.33;;
60292;SDS011;52402;52.670;6.750;2023-04-03T10:11:16;5.05;;;1.45;;
60292;SDS011;52402;52.670;6.750;2023-04-03T10:13:53;3.53;;;1.27;;
60292;SDS011;52402;52.670;6.750;2023-04-03T10:16:24;3.90;;;1.40;;
60292;SDS011;52402;52.670;6.750;2023-04-03T10:26:09;4.05;;;1.33;;
60292;SDS011;52402;52.670;6.750;2023-04-03T10:32:02;4.45;;;1.50;;
60292;SDS011;52402;52.670;6.750;2023-04-03T10:34:41;4.20;;;1.30;;
60292;SDS011;52402;52.670;6.750;2023-04-03T10:40:43;6.03;;;1.40;;
60292;SDS011;52402;52.670;6.750;2023-04-03T10:46:41;3.92;;;1.45;;
60292;SDS011;52402;52.670;6.750;2023-04-03T10:49:37;4.93;;;1.60;;
60292;SDS011;52402;52.670;6.750;2023-04-03T10:56:33;4.63;;;1.40;;
60292;SDS011;52402;52.670;6.750;2023-04-03T11:01:48;4.75;;;1.48;;
60292;SDS011;52402;52.670;6.750;2023-04-03T11:04:26;15.10;;;2.08;;
60292;SDS011;52402;52.670;6.750;2023-04-03T11:06:59;5.68;;;1.55;;
60292;SDS011;52402;52.670;6.750;2023-04-03T11:09:36;4.40;;;1.42;;
60292;SDS011;52402;52.670;6.750;2023-04-03T11:12:17;4.20;;;1.50;;
60292;SDS011;52402;52.670;6.750;2023-04-03T11:14:53;5.03;;;1.50;;
60292;SDS011;52402;52.670;6.750;2023-04-03T11:17:30;4.30;;;1.33;;
60292;SDS011;52402;52.670;6.750;2023-04-03T11:23:21;5.97;;;1.48;;
60292;SDS011;52402;52.670;6.750;2023-04-03T11:25:54;3.42;;;1.45;;
60292;SDS011;52402;52.670;6.750;2023-04-03T11:28:34;4.20;;;1.27;;
60292;SDS011;52402;52.670;6.750;2023-04-03T11:34:31;4.35;;;1.50;;
60292;SDS011;52402;52.670;6.750;2023-04-03T11:37:10;3.55;;;1.30;;
60292;SDS011;52402;52.670;6.750;2023-04-03T11:39:42;3.63;;;1.20;;
60292;SDS011;52402;52.670;6.750;2023-04-03T11:42:41;5.57;;;1.70;;
60292;SDS011;52402;52.670;6.750;2023-04-03T11:45:29;3.83;;;1.35;;
60292;SDS011;52402;52.670;6.750;2023-04-03T11:48:05;4.43;;;1.48;;
60292;SDS011;52402;52.670;6.750;2023-04-03T11:50:52;5.18;;;1.80;;
60292;SDS011;52402;52.670;6.750;2023-04-03T11:53:32;4.82;;;1.50;;
60292;SDS011;52402;52.670;6.750;2023-04-03T11:56:03;4.35;;;1.60;;
60292;SDS011;52402;52.670;6.750;2023-04-03T12:02:14;6.25;;;1.55;;
60292;SDS011;52402;52.670;6.750;2023-04-03T12:05:24;3.78;;;1.55;;
60292;SDS011;52402;52.670;6.750;2023-04-03T12:14:04;5.18;;;1.90;;
60292;SDS011;52402;52.670;6.750;2023-04-03T12:16:46;4.47;;;1.60;;
60292;SDS011;52402;52.670;6.750;2023-04-03T12:19:37;4.60;;;1.80;;
60292;SDS011;52402;52.670;6.750;2023-04-03T12:22:15;5.88;;;1.77;;
60292;SDS011;52402;52.670;6.750;2023-04-03T12:24:45;3.90;;;1.40;;
60292;SDS011;52402;52.670;6.750;2023-04-03T12:27:21;4.15;;;1.60;;
60292;SDS011;52402;52.670;6.750;2023-04-03T12:30:04;5.03;;;1.60;;
60292;SDS011;52402;52.670;6.750;2023-04-03T12:36:09;4.60;;;1.50;;
60292;SDS011;52402;52.670;6.750;2023-04-03T12:41:28;3.55;;;1.50;;
60292;SDS011;52402;52.670;6.750;2023-04-03T12:50:00;4.63;;;1.65;;
60292;SDS011;52402;52.670;6.750;2023-04-03T12:52:34;4.78;;;1.55;;
60292;SDS011;52402;52.670;6.750;2023-04-03T12:55:07;4.18;;;1.55;;
60292;SDS011;52402;52.670;6.750;2023-04-03T12:57:42;4.55;;;1.70;;
60292;SDS011;52402;52.670;6.750;2023-04-03T13:03:19;5.05;;;1.67;;
60292;SDS011;52402;52.670;6.750;2023-04-03T13:06:00;3.92;;;1.50;;
60292;SDS011;52402;52.670;6.750;2023-04-03T13:08:31;5.15;;;1.63;;
60292;SDS011;52402;52.670;6.750;2023-04-03T13:11:01;4.47;;;1.55;;
60292;SDS011;52402;52.670;6.750;2023-04-03T13:13:33;4.28;;;1.60;;
60292;SDS011;52402;52.670;6.750;2023-04-03T13:16:10;4.00;;;1.50;;
60292;SDS011;52402;52.670;6.750;2023-04-03T13:18:41;4.38;;;1.70;;
60292;SDS011;52402;52.670;6.750;2023-04-03T13:21:15;4.90;;;1.60;;
60292;SDS011;52402;52.670;6.750;2023-04-03T13:23:47;4.57;;;1.70;;
60292;SDS011;52402;52.670;6.750;2023-04-03T13:26:18;4.55;;;1.70;;
60292;SDS011;52402;52.670;6.750;2023-04-03T13:28:50;5.32;;;1.80;;
60292;SDS011;52402;52.670;6.750;2023-04-03T13:31:32;4.65;;;1.80;;
60292;SDS011;52402;52.670;6.750;2023-04-03T13:34:11;4.63;;;1.55;;
60292;SDS011;52402;52.670;6.750;2023-04-03T13:36:57;5.97;;;1.90;;
60292;SDS011;52402;52.670;6.750;2023-04-03T13:39:35;5.20;;;1.75;;
60292;SDS011;52402;52.670;6.750;2023-04-03T13:42:16;6.32;;;1.80;;
60292;SDS011;52402;52.670;6.750;2023-04-03T13:44:47;5.32;;;1.92;;
60292;SDS011;52402;52.670;6.750;2023-04-03T13:47:19;4.55;;;1.70;;
60292;SDS011;52402;52.670;6.750;2023-04-03T13:52:52;4.35;;;1.52;;
60292;SDS011;52402;52.670;6.750;2023-04-03T13:55:39;4.25;;;1.88;;
60292;SDS011;52402;52.670;6.750;2023-04-03T13:58:51;4.53;;;1.70;;
60292;SDS011;52402;52.670;6.750;2023-04-03T14:01:32;4.65;;;1.70;;
60292;SDS011;52402;52.670;6.750;2023-04-03T14:04:20;4.30;;;1.65;;
60292;SDS011;52402;52.670;6.750;2023-04-03T14:06:52;4.45;;;1.73;;
60292;SDS011;52402;52.670;6.750;2023-04-03T14:09:21;4.68;;;1.80;;
60292;SDS011;52402;52.670;6.750;2023-04-03T14:11:52;6.35;;;1.80;;
60292;SDS011;52402;52.670;6.750;2023-04-03T14:14:23;4.22;;;1.70;;
60292;SDS011;52402;52.670;6.750;2023-04-03T14:16:54;4.65;;;1.88;;
60292;SDS011;52402;52.670;6.750;2023-04-03T14:19:26;4.82;;;1.80;;
60292;SDS011;52402;52.670;6.750;2023-04-03T14:21:57;3.95;;;1.73;;
60292;SDS011;52402;52.670;6.750;2023-04-03T14:24:33;3.88;;;1.45;;
60292;SDS011;52402;52.670;6.750;2023-04-03T14:27:01;5.30;;;2.00;;
60292;SDS011;52402;52.670;6.750;2023-04-03T14:29:34;5.78;;;1.90;;
60292;SDS011;52402;52.670;6.750;2023-04-03T14:32:02;5.63;;;1.80;;
60292;SDS011;52402;52.670;6.750;2023-04-03T14:34:32;5.20;;;2.08;;
60292;SDS011;52402;52.670;6.750;2023-04-03T14:37:03;4.38;;;1.80;;
60292;SDS011;52402;52.670;6.750;2023-04-03T14:39:36;5.50;;;1.85;;
60292;SDS011;52402;52.670;6.750;2023-04-03T14:42:05;4.65;;;1.67;;
60292;SDS011;52402;52.670;6.750;2023-04-03T14:44:37;4.72;;;1.80;;
60292;SDS011;52402;52.670;6.750;2023-04-03T14:47:11;6.97;;;1.73;;
60292;SDS011;52402;52.670;6.750;2023-04-03T14:49:41;4.50;;;2.03;;
60292;SDS011;52402;52.670;6.750;2023-04-03T14:52:20;4.13;;;1.70;;
60292;SDS011;52402;52.670;6.750;2023-04-03T14:54:50;3.88;;;1.60;;
60292;SDS011;52402;52.670;6.750;2023-04-03T14:57:22;4.93;;;1.98;;
60292;SDS011;52402;52.670;6.750;2023-04-03T14:59:50;6.85;;;1.98;;
60292;SDS011;52402;52.670;6.750;2023-04-03T15:02:33;4.53;;;1.80;;
60292;SDS011;52402;52.670;6.750;2023-04-03T15:05:11;4.45;;;1.80;;
60292;SDS011;52402;52.670;6.750;2023-04-03T15:07:40;4.38;;;1.60;;
60292;SDS011;52402;52.670;6.750;2023-04-03T15:10:20;5.35;;;2.30;;
60292;SDS011;52402;52.670;6.750;2023-04-03T15:12:50;4.90;;;1.90;;
60292;SDS011;52402;52.670;6.750;2023-04-03T15:15:22;5.13;;;2.10;;
60292;SDS011;52402;52.670;6.750;2023-04-03T15:17:54;5.13;;;2.10;;
60292;SDS011;52402;52.670;6.750;2023-04-03T15:20:27;5.60;;;1.90;;
60292;SDS011;52402;52.670;6.750;2023-04-03T15:22:55;4.60;;;1.80;;
60292;SDS011;52402;52.670;6.750;2023-04-03T15:25:28;3.20;;;1.60;;
60292;SDS011;52402;52.670;6.750;2023-04-03T15:28:01;4.40;;;1.85;;
60292;SDS011;52402;52.670;6.750;2023-04-03T15:30:31;4.65;;;1.92;;
60292;SDS011;52402;52.670;6.750;2023-04-03T15:32:59;5.78;;;1.90;;
60292;SDS011;52402;52.670;6.750;2023-04-03T15:35:29;6.55;;;2.00;;
60292;SDS011;52402;52.670;6.750;2023-04-03T15:37:55;4.85;;;2.20;;
60292;SDS011;52402;52.670;6.750;2023-04-03T15:40:28;5.10;;;2.00;;
60292;SDS011;52402;52.670;6.750;2023-04-03T15:42:59;5.63;;;2.55;;
60292;SDS011;52402;52.670;6.750;2023-04-03T15:45:30;5.80;;;2.20;;
60292;SDS011;52402;52.670;6.750;2023-04-03T15:47:58;4.38;;;1.90;;
60292;SDS011;52402;52.670;6.750;2023-04-03T15:50:33;5.03;;;2.15;;
60292;SDS011;52402;52.670;6.750;2023-04-03T15:52:59;7.40;;;2.20;;
60292;SDS011;52402;52.670;6.750;2023-04-03T15:55:29;5.63;;;2.25;;
60292;SDS011;52402;52.670;6.750;2023-04-03T15:58:03;4.07;;;1.80;;
60292;SDS011;52402;52.670;6.750;2023-04-03T16:03:08;4.28;;;2.00;;
60292;SDS011;52402;52.670;6.750;2023-04-03T16:05:44;4.70;;;2.17;;
60292;SDS011;52402;52.670;6.750;2023-04-03T16:08:14;4.75;;;2.13;;
60292;SDS011;52402;52.670;6.750;2023-04-03T16:10:44;6.53;;;2.38;;
60292;SDS011;52402;52.670;6.750;2023-04-03T16:13:17;4.90;;;2.10;;
60292;SDS011;52402;52.670;6.750;2023-04-03T16:20:45;4.47;;;2.50;;
60292;SDS011;52402;52.670;6.750;2023-04-03T16:23:13;4.50;;;2.25;;
60292;SDS011;52402;52.670;6.750;2023-04-03T16:25:41;5.10;;;2.10;;
60292;SDS011;52402;52.670;6.750;2023-04-03T16:28:11;6.45;;;2.58;;
60292;SDS011;52402;52.670;6.750;2023-04-03T16:30:44;5.85;;;2.42;;
60292;SDS011;52402;52.670;6.750;2023-04-03T16:33:16;5.85;;;2.30;;
60292;SDS011;52402;52.670;6.750;2023-04-03T16:38:30;4.80;;;2.17;;
60292;SDS011;52402;52.670;6.750;2023-04-03T16:43:31;4.50;;;2.20;;
60292;SDS011;52402;52.670;6.750;2023-04-03T16:46:03;5.30;;;2.55;;
60292;SDS011;52402;52.670;6.750;2023-04-03T16:48:31;5.63;;;2.60;;
60292;SDS011;52402;52.670;6.750;2023-04-03T16:50:59;4.93;;;2.40;;
60292;SDS011;52402;52.670;6.750;2023-04-03T16:53:27;4.10;;;1.98;;
60292;SDS011;52402;52.670;6.750;2023-04-03T16:56:03;5.22;;;2.30;;
60292;SDS011;52402;52.670;6.750;2023-04-03T16:58:31;4.30;;;2.13;;
60292;SDS011;52402;52.670;6.750;2023-04-03T17:01:13;5.72;;;2.42;;
60292;SDS011;52402;52.670;6.750;2023-04-03T17:03:44;5.10;;;2.15;;
60292;SDS011;52402;52.670;6.750;2023-04-03T17:08:46;5.18;;;2.53;;
60292;SDS011;52402;52.670;6.750;2023-04-03T17:11:20;6.43;;;2.38;;
60292;SDS011;52402;52.670;6.750;2023-04-03T17:13:48;6.28;;;2.20;;
60292;SDS011;52402;52.670;6.750;2023-04-03T17:16:20;4.65;;;2.00;;
60292;SDS011;52402;52.670;6.750;2023-04-03T17:18:53;5.15;;;2.17;;
60292;SDS011;52402;52.670;6.750;2023-04-03T17:21:30;7.00;;;2.50;;
60292;SDS011;52402;52.670;6.750;2023-04-03T17:23:58;5.25;;;2.25;;
60292;SDS011;52402;52.670;6.750;2023-04-03T17:26:34;6.05;;;2.53;;
60292;SDS011;52402;52.670;6.750;2023-04-03T17:29:10;4.78;;;2.25;;
60292;SDS011;52402;52.670;6.750;2023-04-03T17:31:37;4.85;;;2.40;;
60292;SDS011;52402;52.670;6.750;2023-04-03T17:34:08;5.07;;;2.00;;
60292;SDS011;52402;52.670;6.750;2023-04-03T17:36:43;4.95;;;2.40;;